Time;durP1;ratioP1;P1;durP2;ratioP2;P2;SDS_P1;SDS_P2;PMS_P1;PMS_P2;Temp;Humidity;BMP_temperature;BMP_pressure;BME280_temperature;BME280_humidity;BME280_pressure;Samples;Min_cycle;Max_cycle;Signal;HPM_P1;HPM_P2
2021/09/20 00:01:57;;;;;;;10.30;8.43;;;;;;;15.71;69.28;96624.84;5094021;28;20185;-66
2021/09/20 00:04:23;;;;;;;8.77;7.87;;;;;;;15.60;69.39;96622.78;5092696;28;20540;-66
2021/09/20 00:06:49;;;;;;;8.63;7.70;;;;;;;15.73;69.05;96622.81;5093400;28;20209;-68
2021/09/20 00:09:14;;;;;;;11.53;7.97;;;;;;;15.88;68.63;96627.16;5092904;28;20201;-65
2021/09/20 00:11:40;;;;;;;9.60;8.60;;;;;;;15.77;68.50;96621.41;5087649;28;20186;-66
2021/09/20 00:14:05;;;;;;;12.87;7.17;;;;;;;15.84;68.59;96617.97;5093389;28;20720;-67
2021/09/20 00:16:31;;;;;;;10.60;7.83;;;;;;;15.60;68.93;96622.78;5091142;28;20177;-65
2021/09/20 00:18:56;;;;;;;9.27;7.60;;;;;;;15.66;69.07;96616.69;5093480;28;20867;-65
2021/09/20 00:21:24;;;;;;;11.30;8.40;;;;;;;15.96;68.40;96625.13;5093557;28;20182;-67
2021/09/20 00:23:50;;;;;;;9.80;6.80;;;;;;;16.21;67.27;96607.88;5093483;28;20263;-65
2021/09/20 00:26:16;;;;;;;9.23;7.40;;;;;;;16.25;66.88;96603.81;5093211;28;20450;-67
2021/09/20 00:28:41;;;;;;;7.50;6.80;;;;;;;16.33;66.53;96611.53;5096079;28;20878;-66
2021/09/20 00:31:07;;;;;;;8.47;7.20;;;;;;;15.66;68.52;96629.91;5096830;28;20186;-66
2021/09/20 00:33:32;;;;;;;8.50;7.50;;;;;;;15.43;69.74;96638.16;5092758;28;20193;-65
2021/09/20 00:35:58;;;;;;;8.80;7.70;;;;;;;15.32;70.42;96632.41;5093349;28;20231;-66
2021/09/20 00:38:24;;;;;;;9.20;7.80;;;;;;;15.76;68.64;96632.97;5091636;28;20747;-64
2021/09/20 00:40:50;;;;;;;10.57;8.33;;;;;;;15.81;68.10;96633.19;5087857;28;20181;-66
2021/09/20 00:43:16;;;;;;;9.93;8.20;;;;;;;15.62;68.53;96632.13;5091951;28;20453;-65
2021/09/20 00:45:42;;;;;;;8.80;7.90;;;;;;;15.70;68.34;96633.78;5093052;28;20231;-65
2021/09/20 00:48:07;;;;;;;17.53;8.40;;;;;;;15.79;68.09;96635.22;5090043;28;20486;-66
2021/09/20 00:50:33;;;;;;;9.90;8.40;;;;;;;15.95;67.95;96633.25;5073597;28;20607;-67
2021/09/20 00:52:58;;;;;;;8.90;8.00;;;;;;;15.88;67.83;96627.97;5092669;28;20252;-66
2021/09/20 00:55:24;;;;;;;9.53;8.53;;;;;;;16.04;67.45;96629.41;5091361;28;20214;-65
2021/09/20 00:57:50;;;;;;;9.50;7.57;;;;;;;16.09;67.29;96634.09;5092069;28;20185;-66
2021/09/20 01:00:16;;;;;;;7.80;6.90;;;;;;;15.85;67.83;96630.19;5091353;28;20201;-66
2021/09/20 01:02:42;;;;;;;9.97;8.37;;;;;;;16.00;67.54;96630.84;5092707;28;20174;-67
2021/09/20 01:05:09;;;;;;;8.90;8.00;;;;;;;16.09;67.18;96640.22;5091646;28;20510;-67
2021/09/20 01:07:35;;;;;;;9.00;7.80;;;;;;;16.12;67.07;96636.34;5091687;28;20177;-65
2021/09/20 01:10:00;;;;;;;9.10;7.80;;;;;;;16.15;66.94;96635.09;5086619;28;20451;-66
2021/09/20 01:12:27;;;;;;;8.97;7.73;;;;;;;16.19;66.89;96637.16;5092449;28;20182;-67
2021/09/20 01:14:55;;;;;;;10.23;6.93;;;;;;;16.20;67.01;96643.25;5090570;28;20664;-65
2021/09/20 01:17:21;;;;;;;9.13;7.90;;;;;;;16.26;66.65;96642.44;5073939;28;20523;-65
2021/09/20 01:19:47;;;;;;;9.40;7.17;;;;;;;16.29;66.74;96647.31;5097738;28;20455;-66
2021/09/20 01:22:14;;;;;;;11.77;6.93;;;;;;;16.17;66.58;96639.19;5092117;28;20185;-67
2021/09/20 01:24:40;;;;;;;10.83;7.57;;;;;;;16.27;66.43;96654.66;5091434;28;20186;-68
2021/09/20 01:27:07;;;;;;;8.27;7.47;;;;;;;16.17;66.80;96648.94;5091510;28;20823;-66
2021/09/20 01:29:34;;;;;;;11.90;8.20;;;;;;;15.74;68.19;96650.88;5090554;28;20439;-67
2021/09/20 01:32:00;;;;;;;9.67;8.07;;;;;;;16.00;67.79;96646.69;5091918;28;20431;-66
2021/09/20 01:34:26;;;;;;;8.50;7.70;;;;;;;15.76;68.19;96640.91;5091914;28;20423;-64
2021/09/20 01:36:52;;;;;;;9.83;8.53;;;;;;;15.85;68.11;96646.84;5091681;28;20428;-66
2021/09/20 01:39:23;;;;;;;8.83;7.53;;;;;;;15.72;68.57;96644.97;5090346;28;20439;-65
2021/09/20 01:41:50;;;;;;;13.37;8.37;;;;;;;15.74;68.49;96636.84;5088463;28;20243;-67
2021/09/20 01:44:17;;;;;;;9.53;8.33;;;;;;;15.51;69.36;96641.44;5090939;28;20451;-66
2021/09/20 01:46:43;;;;;;;12.23;8.70;;;;;;;15.27;70.55;96644.56;5091793;28;20675;-65
2021/09/20 01:49:10;;;;;;;12.93;7.83;;;;;;;15.34;70.36;96650.72;5090308;28;20452;-65
2021/09/20 01:51:35;;;;;;;9.40;8.00;;;;;;;15.03;71.33;96647.50;5091808;28;20506;-65
2021/09/20 01:54:01;;;;;;;11.27;8.90;;;;;;;15.40;70.44;96649.91;5091373;28;20609;-65
2021/09/20 01:56:26;;;;;;;10.40;8.60;;;;;;;15.39;69.80;96655.41;5090585;28;20644;-65
2021/09/20 01:58:52;;;;;;;13.20;8.13;;;;;;;15.51;69.24;96649.34;5091168;28;20304;-65
2021/09/20 02:01:18;;;;;;;10.67;8.60;;;;;;;15.04;70.92;96645.69;5091237;28;20181;-66
2021/09/20 02:03:43;;;;;;;10.27;9.17;;;;;;;15.08;71.19;96651.38;5091098;28;20691;-65
2021/09/20 02:06:09;;;;;;;11.00;9.50;;;;;;;15.16;70.68;96648.59;5090704;28;20197;-66
2021/09/20 02:08:35;;;;;;;10.60;8.30;;;;;;;15.34;70.09;96648.06;5090525;28;20213;-66
2021/09/20 02:11:00;;;;;;;13.23;8.77;;;;;;;15.24;70.33;96656.34;5086364;28;20181;-65
2021/09/20 02:13:26;;;;;;;11.33;8.40;;;;;;;15.31;69.98;96651.91;5089940;28;20231;-63
2021/09/20 02:15:51;;;;;;;11.30;8.80;;;;;;;15.23;70.39;96659.19;5090078;28;20178;-66
2021/09/20 02:18:17;;;;;;;10.00;8.57;;;;;;;15.19;70.12;96654.28;5090443;28;20198;-66
2021/09/20 02:20:42;;;;;;;11.47;8.43;;;;;;;15.13;70.20;96660.34;5090464;28;20551;-63
2021/09/20 02:23:08;;;;;;;11.93;8.60;;;;;;;15.20;70.31;96668.28;5090555;28;20254;-66
2021/09/20 02:25:34;;;;;;;10.80;9.27;;;;;;;15.17;70.53;96658.16;5090096;28;20194;-66
2021/09/20 02:27:59;;;;;;;12.83;8.30;;;;;;;15.22;70.27;96663.63;5093162;28;20273;-67
2021/09/20 02:30:25;;;;;;;11.67;8.90;;;;;;;15.18;70.63;96663.22;5095101;28;20185;-63
2021/09/20 02:32:50;;;;;;;11.63;8.73;;;;;;;15.18;70.70;96663.22;5095293;28;20219;-65
2021/09/20 02:35:16;;;;;;;10.80;8.67;;;;;;;15.01;71.10;96660.09;5095080;28;20182;-66
2021/09/20 02:37:42;;;;;;;9.67;8.67;;;;;;;15.10;70.94;96659.91;5094418;28;20773;-64
2021/09/20 02:40:09;;;;;;;9.60;8.13;;;;;;;15.25;70.21;96657.19;5088518;28;20178;-68
2021/09/20 02:42:35;;;;;;;10.17;8.20;;;;;;;15.08;69.94;96662.75;5093958;28;20941;-65
2021/09/20 02:45:02;;;;;;;10.80;8.73;;;;;;;15.16;70.09;96656.50;5094868;28;20506;-64
2021/09/20 02:47:28;;;;;;;11.37;9.07;;;;;;;15.49;69.07;96659.31;5094606;28;20853;-64
2021/09/20 02:49:53;;;;;;;10.70;8.80;;;;;;;15.55;68.87;96654.25;5094900;28;20535;-64
2021/09/20 02:52:19;;;;;;;11.53;8.57;;;;;;;15.60;68.57;96657.13;5094707;28;20185;-65
2021/09/20 02:54:45;;;;;;;10.73;8.77;;;;;;;15.62;68.25;96650.63;5094964;28;20552;-67
2021/09/20 02:57:10;;;;;;;10.97;9.17;;;;;;;15.78;67.92;96649.44;5094506;28;20182;-63
2021/09/20 02:59:36;;;;;;;10.00;9.00;;;;;;;15.85;67.51;96656.63;5093080;28;20676;-65
2021/09/20 03:02:01;;;;;;;9.77;8.37;;;;;;;15.96;67.10;96646.25;5094250;28;20610;-66
2021/09/20 03:04:27;;;;;;;11.03;8.43;;;;;;;15.98;66.98;96643.44;5094670;28;20231;-66
2021/09/20 03:06:53;;;;;;;9.80;8.50;;;;;;;15.73;67.27;96646.59;5094364;28;20284;-65
2021/09/20 03:09:18;;;;;;;10.50;8.07;;;;;;;15.73;67.54;96651.88;5094484;28;20215;-66
2021/09/20 03:11:44;;;;;;;11.80;9.50;;;;;;;15.72;67.49;96650.25;5096768;28;20192;-65
2021/09/20 03:14:10;;;;;;;11.73;8.50;;;;;;;15.77;67.03;96655.75;5094260;28;20185;-68
2021/09/20 03:16:35;;;;;;;10.73;8.20;;;;;;;15.90;66.95;96654.19;5094438;28;20177;-65
2021/09/20 03:19:01;;;;;;;12.90;9.30;;;;;;;15.88;66.83;96656.22;5091724;28;20259;-67
2021/09/20 03:21:26;;;;;;;11.27;8.33;;;;;;;15.93;66.52;96659.91;5092827;28;20210;-63
2021/09/20 03:23:52;;;;;;;9.63;8.60;;;;;;;16.08;66.16;96658.88;5094184;28;20216;-66
2021/09/20 03:26:18;;;;;;;11.73;9.33;;;;;;;16.15;65.93;96658.91;5094146;28;20789;-66
2021/09/20 03:28:43;;;;;;;11.43;9.53;;;;;;;15.76;66.96;96651.47;5084710;28;20287;-67
2021/09/20 03:31:09;;;;;;;10.43;8.13;;;;;;;15.95;66.49;96655.19;5093272;28;20844;-67
2021/09/20 03:33:35;;;;;;;11.10;8.80;;;;;;;16.13;65.83;96659.91;5093921;28;20216;-65
2021/09/20 03:36:01;;;;;;;9.40;8.43;;;;;;;16.24;65.53;96655.06;5092627;28;20189;-67
2021/09/20 03:38:26;;;;;;;14.03;7.90;;;;;;;16.30;65.41;96654.25;5092599;28;20202;-64
2021/09/20 03:40:52;;;;;;;8.67;7.77;;;;;;;16.34;65.23;96655.47;5092971;28;20185;-66
2021/09/20 03:43:17;;;;;;;13.67;8.60;;;;;;;16.41;64.89;96658.94;5093218;28;20186;-66
2021/09/20 03:45:43;;;;;;;12.13;9.10;;;;;;;16.46;64.59;96652.22;5093680;28;20209;-68
2021/09/20 03:48:08;;;;;;;9.37;8.40;;;;;;;16.48;64.63;96656.28;5092966;28;20216;-64
2021/09/20 03:50:34;;;;;;;11.83;8.30;;;;;;;16.55;64.51;96659.75;5093380;28;20181;-64
2021/09/20 03:53:00;;;;;;;9.87;8.53;;;;;;;16.55;64.31;96657.13;5093054;28;20194;-66
2021/09/20 03:55:25;;;;;;;13.30;9.23;;;;;;;16.41;64.45;96661.56;5091902;28;20174;-65
2021/09/20 03:57:51;;;;;;;14.87;8.83;;;;;;;16.40;64.64;96665.22;5089596;28;20187;-65
2021/09/20 04:00:17;;;;;;;13.47;8.30;;;;;;;16.31;65.07;96661.16;5093143;28;20182;-66
2021/09/20 04:02:42;;;;;;;23.40;10.60;;;;;;;16.40;65.00;96662.59;5091845;28;20181;-66
2021/09/20 04:05:08;;;;;;;58.67;20.80;;;;;;;16.44;64.71;96660.38;5092812;28;20782;-65
2021/09/20 04:07:38;;;;;;;19.00;10.20;;;;;;;16.45;64.80;96661.19;5092654;28;20202;-64
2021/09/20 04:10:04;;;;;;;10.57;7.90;;;;;;;16.47;64.56;96659.94;5092802;28;20973;-66
2021/09/20 04:12:29;;;;;;;9.13;7.80;;;;;;;16.38;64.97;96661.97;5091865;28;20927;-68
2021/09/20 04:14:55;;;;;;;9.33;7.87;;;;;;;16.43;65.04;96664.03;5092059;28;20473;-67
2021/09/20 04:17:20;;;;;;;9.67;8.00;;;;;;;16.29;65.51;96671.13;5092635;28;20530;-65
2021/09/20 04:19:46;;;;;;;9.13;8.20;;;;;;;16.43;64.85;96664.84;5091693;28;20201;-66
2021/09/20 04:22:12;;;;;;;13.10;8.43;;;;;;;16.27;65.27;96665.22;5092509;28;20192;-65
2021/09/20 04:24:37;;;;;;;9.00;8.10;;;;;;;16.44;64.84;96665.66;5092795;28;20664;-66
2021/09/20 04:27:03;;;;;;;12.47;8.00;;;;;;;16.46;64.78;96668.09;5092294;28;20212;-64
2021/09/20 04:29:28;;;;;;;9.47;7.67;;;;;;;16.42;65.01;96668.50;5089144;28;20228;-66
2021/09/20 04:31:54;;;;;;;8.97;7.17;;;;;;;16.51;64.56;96665.63;5091623;28;20189;-66
2021/09/20 04:34:20;;;;;;;9.27;7.10;;;;;;;16.55;64.15;96666.88;5091928;28;20644;-66
2021/09/20 04:36:45;;;;;;;9.37;7.73;;;;;;;16.56;64.16;96668.50;5092395;28;20186;-63
2021/09/20 04:39:11;;;;;;;10.10;7.90;;;;;;;16.56;64.12;96668.50;5091874;28;20567;-66
2021/09/20 04:41:39;;;;;;;10.13;7.90;;;;;;;16.59;64.22;96673.41;5092413;28;20231;-66
2021/09/20 04:44:04;;;;;;;9.70;7.97;;;;;;;16.57;64.04;96672.78;5092477;28;20190;-66
2021/09/20 04:46:30;;;;;;;10.10;7.70;;;;;;;16.47;64.15;96686.41;5092664;28;20928;-65
2021/09/20 04:48:55;;;;;;;9.10;7.73;;;;;;;16.39;64.45;96686.59;5090260;28;20632;-69
2021/09/20 04:51:21;;;;;;;9.80;8.27;;;;;;;16.42;64.65;96697.59;5091437;28;20583;-64
2021/09/20 04:53:47;;;;;;;10.07;7.57;;;;;;;16.48;64.32;96695.16;5092320;28;20261;-65
2021/09/20 04:56:13;;;;;;;10.37;9.00;;;;;;;16.52;64.25;96699.84;5092139;28;20205;-64
2021/09/20 04:58:40;;;;;;;9.30;8.03;;;;;;;16.54;64.16;96702.28;5088355;28;20205;-66
2021/09/20 05:01:05;;;;;;;10.63;7.50;;;;;;;16.56;64.26;96711.66;5092223;28;20419;-66
2021/09/20 05:03:31;;;;;;;8.57;7.67;;;;;;;16.51;64.15;96707.97;5095119;28;20408;-66
2021/09/20 05:05:57;;;;;;;11.13;8.23;;;;;;;16.33;65.17;96705.91;5092015;28;20201;-64
2021/09/20 05:08:22;;;;;;;8.77;7.67;;;;;;;16.31;65.29;96708.75;5091225;28;20202;-66
2021/09/20 05:10:48;;;;;;;13.00;8.23;;;;;;;16.44;64.91;96700.03;5090919;28;20269;-65
2021/09/20 05:13:13;;;;;;;8.77;7.87;;;;;;;16.41;65.12;96705.72;5084144;28;20170;-67
2021/09/20 05:15:39;;;;;;;9.80;7.70;;;;;;;16.47;64.74;96702.25;5092617;28;20170;-65
2021/09/20 05:18:05;;;;;;;9.03;7.73;;;;;;;16.27;65.38;96704.88;5094092;28;20209;-66
2021/09/20 05:20:30;;;;;;;11.50;8.10;;;;;;;16.37;65.11;96707.97;5094779;28;20659;-64
2021/09/20 05:22:56;;;;;;;13.07;10.03;;;;;;;16.15;66.34;96714.41;5091573;28;20203;-68
2021/09/20 05:25:22;;;;;;;11.83;9.60;;;;;;;16.34;66.01;96708.38;5093298;28;20363;-65
2021/09/20 05:27:49;;;;;;;13.60;9.37;;;;;;;16.47;65.74;96712.84;5088317;28;20754;-65
2021/09/20 05:30:15;;;;;;;10.13;8.43;;;;;;;16.50;65.57;96709.00;5065498;28;20857;-68
2021/09/20 05:32:41;;;;;;;13.07;8.77;;;;;;;16.39;66.37;96715.69;5089360;28;20860;-64
2021/09/20 05:35:07;;;;;;;11.50;9.27;;;;;;;16.52;65.89;96714.88;5092504;28;20415;-64
2021/09/20 05:37:33;;;;;;;11.50;9.37;;;;;;;16.62;65.49;96712.66;5087566;28;20552;-66
2021/09/20 05:39:58;;;;;;;21.50;10.57;;;;;;;16.58;65.58;96711.44;5092062;28;20518;-65
2021/09/20 05:42:24;;;;;;;30.87;13.33;;;;;;;16.52;65.86;96726.28;5093349;28;20205;-65
2021/09/20 05:44:49;;;;;;;85.70;26.80;;;;;;;16.56;65.70;96726.69;5100736;28;20249;-69
2021/09/20 05:47:15;;;;;;;39.40;16.43;;;;;;;16.71;65.44;96724.69;5098522;28;20678;-66
2021/09/20 05:49:41;;;;;;;15.53;10.60;;;;;;;16.55;66.33;96725.06;5103433;28;20253;-67
2021/09/20 05:52:06;;;;;;;13.20;9.73;;;;;;;16.15;67.11;96730.28;5111592;28;20199;-69
2021/09/20 05:54:32;;;;;;;10.20;8.50;;;;;;;16.71;65.50;96729.13;5112719;28;20249;-69
2021/09/20 05:56:58;;;;;;;12.10;9.40;;;;;;;16.82;64.73;96728.53;5100275;28;20628;-66
2021/09/20 05:59:24;;;;;;;10.87;8.53;;;;;;;16.87;64.57;96723.44;5101775;28;20447;-65
2021/09/20 06:01:49;;;;;;;11.50;9.27;;;;;;;16.96;64.13;96729.38;5093142;28;20205;-69
2021/09/20 06:04:15;;;;;;;9.80;8.57;;;;;;;16.89;64.42;96726.72;5095090;28;20191;-64
2021/09/20 06:06:41;;;;;;;11.07;9.20;;;;;;;16.88;64.50;96734.88;5090955;28;20194;-65
2021/09/20 06:09:07;;;;;;;11.23;8.10;;;;;;;17.08;63.97;96739.34;5090186;28;20202;-64
2021/09/20 06:11:32;;;;;;;11.30;7.93;;;;;;;17.17;63.75;96738.09;5091504;28;20963;-66
2021/09/20 06:13:58;;;;;;;17.47;10.10;;;;;;;17.19;63.73;96746.66;5091388;28;20193;-65
2021/09/20 06:16:24;;;;;;;13.37;9.37;;;;;;;17.19;63.77;96741.38;5091909;28;20306;-65
2021/09/20 06:18:49;;;;;;;14.30;9.83;;;;;;;17.10;64.39;96738.13;5090414;28;20201;-68
2021/09/20 06:21:15;;;;;;;11.63;9.10;;;;;;;17.16;63.81;96736.47;5090998;28;20522;-66
2021/09/20 06:23:41;;;;;;;13.80;11.60;;;;;;;16.95;64.41;96735.69;5091877;28;20188;-66
2021/09/20 06:26:07;;;;;;;10.70;9.60;;;;;;;17.19;63.90;96736.06;5091370;28;20487;-65
2021/09/20 06:28:32;;;;;;;14.30;10.03;;;;;;;16.89;64.69;96739.09;5091247;28;20220;-64
2021/09/20 06:31:02;;;;;;;10.57;9.40;;;;;;;16.84;64.67;96737.06;5091111;28;20508;-65
2021/09/20 06:33:30;;;;;;;44.13;19.53;;;;;;;17.08;64.27;96734.84;5091257;28;20240;-67
2021/09/20 06:35:55;;;;;;;18.93;9.90;;;;;;;17.22;64.00;96740.97;5091153;28;20869;-67
2021/09/20 06:38:21;;;;;;;14.17;10.97;;;;;;;17.40;63.36;96742.97;5086800;28;20527;-65
2021/09/20 06:40:47;;;;;;;11.60;9.80;;;;;;;17.23;63.67;96737.31;5091480;28;20185;-65
2021/09/20 06:43:12;;;;;;;12.60;10.77;;;;;;;17.32;63.49;96741.34;5091303;28;20191;-66
2021/09/20 06:45:38;;;;;;;17.53;11.60;;;;;;;17.39;63.49;96740.53;5091308;28;20651;-66
2021/09/20 06:48:04;;;;;;;16.50;10.90;;;;;;;17.55;63.21;96747.22;5084442;28;20210;-63
2021/09/20 06:50:29;;;;;;;13.10;10.50;;;;;;;17.42;63.88;96742.75;5079096;28;20259;-63
2021/09/20 06:52:55;;;;;;;16.00;11.00;;;;;;;17.57;63.31;96740.69;5088608;28;20201;-65
2021/09/20 06:55:20;;;;;;;14.53;11.33;;;;;;;17.61;63.35;96741.06;5092669;28;20193;-64
2021/09/20 06:57:46;;;;;;;17.33;11.30;;;;;;;17.57;63.16;96739.88;5094451;28;20274;-64
2021/09/20 07:00:13;;;;;;;25.77;12.43;;;;;;;17.62;63.20;96745.34;5091293;28;20182;-64
2021/09/20 07:02:39;;;;;;;18.17;11.47;;;;;;;17.63;63.14;96747.81;5095055;28;20206;-65
2021/09/20 07:05:06;;;;;;;14.93;11.40;;;;;;;17.63;63.61;96744.34;5090453;28;20470;-65
2021/09/20 07:07:31;;;;;;;16.87;12.27;;;;;;;17.69;63.70;96745.34;5087539;28;20194;-67
2021/09/20 07:09:57;;;;;;;13.23;11.30;;;;;;;17.92;62.97;96739.53;5090461;28;20451;-66
2021/09/20 07:12:23;;;;;;;16.97;13.13;;;;;;;17.66;63.95;96742.06;5089371;28;20207;-63
2021/09/20 07:14:48;;;;;;;17.97;13.80;;;;;;;17.47;65.05;96746.41;5092780;28;20184;-68
2021/09/20 07:17:14;;;;;;;23.03;13.20;;;;;;;17.52;64.83;96737.03;5093045;28;20231;-64
2021/09/20 07:19:39;;;;;;;18.23;14.00;;;;;;;17.41;65.67;96746.41;5092900;28;20205;-65
2021/09/20 07:22:05;;;;;;;16.67;13.30;;;;;;;17.44;65.12;96743.38;5093848;28;20200;-67
2021/09/20 07:24:30;;;;;;;23.37;14.10;;;;;;;17.52;65.33;96740.47;5094188;28;20558;-64
2021/09/20 07:26:56;;;;;;;18.07;13.17;;;;;;;17.55;64.97;96740.06;5094187;28;20209;-63
2021/09/20 07:29:22;;;;;;;20.90;13.87;;;;;;;17.16;65.86;96742.59;5093818;28;20211;-67
2021/09/20 07:31:47;;;;;;;18.27;13.60;;;;;;;17.70;64.93;96746.97;5094085;28;20269;-63
2021/09/20 07:34:13;;;;;;;24.83;14.13;;;;;;;17.83;64.38;96746.91;5093624;28;20185;-64
2021/09/20 07:36:39;;;;;;;17.90;13.57;;;;;;;17.61;64.66;96749.84;5092694;28;20666;-65
2021/09/20 07:39:05;;;;;;;16.60;13.73;;;;;;;17.80;64.36;96748.16;5091031;28;20224;-65
2021/09/20 07:41:31;;;;;;;17.10;14.17;;;;;;;17.70;64.38;96752.25;5094180;28;20208;-65
2021/09/20 07:43:56;;;;;;;19.33;15.10;;;;;;;17.46;65.53;96752.72;5093439;28;20519;-64
2021/09/20 07:46:22;;;;;;;16.13;13.57;;;;;;;17.76;64.52;96760.19;5093808;28;20197;-64
2021/09/20 07:48:52;;;;;;;20.00;13.93;;;;;;;17.94;63.32;96759.50;5093265;28;20240;-64
2021/09/20 07:51:18;;;;;;;18.73;13.10;;;;;;;18.29;62.24;96755.72;5093137;28;20428;-63
2021/09/20 07:53:44;;;;;;;16.57;12.67;;;;;;;18.15;62.59;96752.31;5093599;28;20431;-64
2021/09/20 07:56:10;;;;;;;13.93;12.37;;;;;;;18.49;61.92;96755.59;5091872;28;20426;-66
2021/09/20 07:58:36;;;;;;;16.17;12.17;;;;;;;18.13;62.88;96762.34;5093172;28;20197;-65
2021/09/20 08:01:02;;;;;;;16.73;12.80;;;;;;;18.53;62.06;96766.59;5093149;28;20431;-64
2021/09/20 08:03:28;;;;;;;16.10;12.73;;;;;;;18.00;63.27;96773.78;5093127;28;20241;-64
2021/09/20 08:05:54;;;;;;;20.23;12.70;;;;;;;18.08;62.93;96770.91;5093040;28;20902;-64
2021/09/20 08:08:20;;;;;;;15.17;13.57;;;;;;;18.57;61.83;96771.25;5090857;28;20208;-63
2021/09/20 08:10:46;;;;;;;15.07;12.27;;;;;;;18.57;61.88;96765.16;5093412;28;20196;-64
2021/09/20 08:13:13;;;;;;;14.70;12.70;;;;;;;18.47;61.29;96773.56;5091890;28;20420;-65
2021/09/20 08:15:40;;;;;;;14.63;13.00;;;;;;;18.79;60.14;96776.22;5093061;28;20199;-64
2021/09/20 08:18:06;;;;;;;17.07;13.27;;;;;;;18.75;60.45;96780.34;5092794;28;20424;-65
2021/09/20 08:20:32;;;;;;;14.70;12.60;;;;;;;18.92;59.67;96782.44;5092595;28;20507;-65
2021/09/20 08:22:57;;;;;;;16.83;12.10;;;;;;;19.01;59.37;96782.00;5092489;28;20584;-65
2021/09/20 08:25:24;;;;;;;12.90;11.00;;;;;;;18.73;60.59;96777.88;5090564;28;20185;-67
2021/09/20 08:27:50;;;;;;;14.53;11.37;;;;;;;18.68;60.97;96779.56;5092246;28;20209;-65
2021/09/20 08:30:16;;;;;;;19.97;12.17;;;;;;;18.56;61.52;96774.94;5092433;28;20428;-63
2021/09/20 08:32:42;;;;;;;15.77;13.47;;;;;;;18.71;60.68;96784.44;5092741;28;20495;-64
2021/09/20 08:35:08;;;;;;;14.90;12.50;;;;;;;18.88;59.96;96784.72;5092440;28;20860;-64
2021/09/20 08:37:33;;;;;;;16.50;12.60;;;;;;;19.10;59.17;96790.50;5089695;28;20710;-65
2021/09/20 08:39:59;;;;;;;18.50;12.63;;;;;;;19.11;58.98;96786.00;5091115;28;20448;-65
2021/09/20 08:42:25;;;;;;;15.40;12.90;;;;;;;19.25;58.61;96786.72;5092925;28;20174;-66
2021/09/20 08:44:51;;;;;;;17.47;13.30;;;;;;;19.55;58.23;96784.19;5092727;28;20178;-65
2021/09/20 08:47:18;;;;;;;18.80;12.70;;;;;;;19.52;57.22;96791.78;5100283;28;20198;-64
2021/09/20 08:49:45;;;;;;;19.33;14.53;;;;;;;19.36;58.25;96799.28;5092323;28;20271;-63
2021/09/20 08:52:11;;;;;;;20.30;15.67;;;;;;;19.19;58.80;96797.16;5092864;28;20427;-66
2021/09/20 08:54:37;;;;;;;18.50;13.20;;;;;;;19.21;58.79;96798.81;5095131;28;20812;-64
2021/09/20 08:57:03;;;;;;;18.10;13.77;;;;;;;19.16;58.66;96807.41;5092222;28;20652;-66
2021/09/20 08:59:28;;;;;;;17.70;12.80;;;;;;;18.80;59.68;96808.88;5092203;28;20267;-67
2021/09/20 09:01:55;;;;;;;23.10;13.13;;;;;;;19.35;59.00;96805.63;5092254;28;20863;-63
2021/09/20 09:04:24;;;;;;;16.63;12.70;;;;;;;19.43;57.77;96804.53;5089495;28;20208;-63
2021/09/20 09:07:01;;;;;;;17.13;12.37;;;;;;;19.22;58.45;96811.06;5093410;28;20485;-63
2021/09/20 09:09:36;;;;;;;15.23;11.93;;;;;;;19.30;57.88;96819.56;5090605;28;20443;-64
2021/09/20 09:12:08;;;;;;;17.13;12.80;;;;;;;19.42;57.53;96811.69;5092383;28;20531;-63
2021/09/20 09:14:44;;;;;;;16.73;12.90;;;;;;;18.38;60.79;96823.41;5082491;28;20489;-66
2021/09/20 09:17:33;;;;;;;15.07;11.97;;;;;;;19.03;59.16;96818.94;5090790;28;20415;-66
2021/09/20 09:20:13;;;;;;;17.60;12.43;;;;;;;18.15;62.06;96818.59;5083833;28;20450;-64
2021/09/20 09:22:47;;;;;;;16.57;13.47;;;;;;;18.84;59.57;96815.38;5087779;28;20482;-63
2021/09/20 09:25:46;;;;;;;15.70;12.23;;;;;;;18.96;59.28;96826.16;5092055;28;20424;-64
2021/09/20 09:28:15;;;;;;;17.00;13.10;;;;;;;18.95;59.30;96824.53;5083256;28;20455;-64
2021/09/20 09:30:43;;;;;;;23.20;12.57;;;;;;;19.25;58.66;96827.38;5092549;28;20503;-65
2021/09/20 09:33:13;;;;;;;19.73;13.87;;;;;;;19.19;58.88;96823.72;5093565;28;20423;-66
2021/09/20 09:35:43;;;;;;;22.47;14.37;;;;;;;19.49;57.79;96828.41;5094550;28;20424;-64
2021/09/20 09:38:09;;;;;;;15.80;12.57;;;;;;;19.57;57.35;96829.13;5090211;28;20454;-63
2021/09/20 09:40:55;;;;;;;20.40;13.60;;;;;;;19.01;59.37;96827.13;5092335;28;20412;-65
2021/09/20 09:43:23;;;;;;;17.13;13.17;;;;;;;18.93;59.79;96837.16;5092526;28;20173;-66
2021/09/20 09:45:49;;;;;;;17.70;13.90;;;;;;;19.36;58.30;96825.84;5092298;28;20423;-68
2021/09/20 09:48:18;;;;;;;20.60;14.27;;;;;;;19.52;57.79;96816.50;5090889;28;20809;-67
2021/09/20 09:50:49;;;;;;;17.03;13.53;;;;;;;19.78;57.27;96817.28;5092050;28;20485;-65
2021/09/20 09:53:33;;;;;;;21.33;15.27;;;;;;;18.54;59.92;96816.78;5092007;28;20416;-65
2021/09/20 09:56:17;;;;;;;17.37;14.27;;;;;;;18.20;61.81;96820.66;5091626;28;20420;-64
2021/09/20 09:59:00;;;;;;;17.27;13.27;;;;;;;18.37;61.50;96832.38;5091160;28;20455;-64
2021/09/20 10:01:39;;;;;;;22.30;16.10;;;;;;;18.45;61.33;96827.88;5090281;28;20437;-65
2021/09/20 10:04:24;;;;;;;22.90;13.93;;;;;;;19.12;59.30;96830.94;5091561;28;20491;-64
2021/09/20 10:07:00;;;;;;;25.40;17.20;;;;;;;18.88;60.22;96833.34;5088638;28;20476;-66
2021/09/20 10:09:30;;;;;;;23.07;16.03;;;;;;;19.10;59.70;96829.53;5091003;28;20431;-63
2021/09/20 10:11:57;;;;;;;25.17;16.77;;;;;;;19.44;58.52;96824.75;5091171;28;20526;-64
2021/09/20 10:14:24;;;;;;;18.83;13.77;;;;;;;19.66;57.54;96822.50;5091184;28;20781;-66
2021/09/20 10:16:53;;;;;;;18.90;14.73;;;;;;;19.58;57.48;96825.44;5091068;28;20464;-68
2021/09/20 10:19:19;;;;;;;20.63;13.17;;;;;;;19.62;57.36;96816.81;5090790;28;20447;-66
2021/09/20 10:21:45;;;;;;;18.60;13.97;;;;;;;19.65;57.42;96831.53;5092193;28;20532;-65
2021/09/20 10:24:11;;;;;;;18.03;13.63;;;;;;;19.91;56.37;96824.34;5082342;28;20476;-64
2021/09/20 10:26:37;;;;;;;15.77;13.00;;;;;;;19.72;56.56;96826.16;5089807;28;20451;-64
2021/09/20 10:29:04;;;;;;;15.83;13.10;;;;;;;18.75;59.65;96833.41;5090777;28;20217;-62
2021/09/20 10:31:32;;;;;;;14.07;12.53;;;;;;;19.30;58.86;96829.38;5089544;28;20177;-64
2021/09/20 10:34:33;;;;;;;17.70;13.30;;;;;;;18.60;60.67;96833.69;5090395;28;20432;-62
2021/09/20 10:37:02;;;;;;;17.10;12.50;;;;;;;19.00;59.79;96835.34;5065908;28;20449;-64
2021/09/20 10:40:01;;;;;;;17.40;12.70;;;;;;;19.28;59.03;96832.25;5067912;28;20865;-67
2021/09/20 10:42:36;;;;;;;15.10;12.53;;;;;;;19.21;58.66;96836.00;5073408;28;20431;-65
2021/09/20 10:45:07;;;;;;;18.27;13.20;;;;;;;19.42;57.80;96827.63;5087895;28;20439;-65
2021/09/20 10:47:44;;;;;;;16.20;13.10;;;;;;;19.42;57.92;96832.94;5081844;28;20528;-62
2021/09/20 10:50:10;;;;;;;14.23;12.73;;;;;;;19.46;57.34;96838.66;5087965;28;20450;-68
2021/09/20 10:52:36;;;;;;;13.70;12.30;;;;;;;19.13;58.04;96840.56;5092542;28;20760;-66
2021/09/20 10:55:06;;;;;;;15.20;13.00;;;;;;;19.26;57.73;96833.50;5052346;28;20437;-65
2021/09/20 10:57:32;;;;;;;25.80;13.47;;;;;;;19.62;57.30;96829.31;5070836;28;20285;-67
2021/09/20 11:00:19;;;;;;;17.03;13.80;;;;;;;19.63;56.95;96823.75;5089972;28;20527;-63
2021/09/20 11:02:45;;;;;;;17.50;12.90;;;;;;;19.53;56.92;96828.75;5082429;28;20190;-65
2021/09/20 11:05:10;;;;;;;15.10;12.90;;;;;;;19.45;57.03;96829.84;5075307;28;20821;-66
2021/09/20 11:07:49;;;;;;;17.13;14.13;;;;;;;19.39;57.82;96832.56;5080078;28;20293;-64
2021/09/20 11:10:15;;;;;;;19.20;13.13;;;;;;;19.84;56.99;96832.34;5077710;28;20205;-65
2021/09/20 11:13:01;;;;;;;19.23;13.07;;;;;;;20.09;55.77;96832.31;5095278;28;20511;-66
2021/09/20 11:15:26;;;;;;;18.97;13.03;;;;;;;20.27;55.13;96828.00;5092756;28;20427;-65
2021/09/20 11:17:52;;;;;;;17.73;14.63;;;;;;;20.05;55.39;96833.78;5094113;28;20427;-62
2021/09/20 11:20:18;;;;;;;18.03;14.40;;;;;;;20.04;55.04;96829.47;5094338;28;20181;-64
2021/09/20 11:22:44;;;;;;;15.93;13.63;;;;;;;20.25;54.60;96827.41;5086713;28;20297;-65
2021/09/20 11:25:13;;;;;;;15.60;13.80;;;;;;;19.30;57.59;96832.84;5093536;28;20557;-64